Time;durP1;ratioP1;P1;durP2;ratioP2;P2;SDS_P1;SDS_P2;PMS_P1;PMS_P2;Temp;Humidity;BMP_temperature;BMP_pressure;BME280_temperature;BME280_humidity;BME280_pressure;Samples;Min_cycle;Max_cycle;Signal;HPM_P1;HPM_P2
2021/05/18 00:01:29;;;;;;;26.10;23.42;;;;;;;13.39;80.12;97219.79;1754477;80;21070;-68
2021/05/18 00:03:55;;;;;;;26.48;23.67;;;;;;;13.32;80.17;97216.01;1745952;82;21051;-68
2021/05/18 00:06:21;;;;;;;26.68;23.95;;;;;;;13.27;80.27;97222.80;1733115;82;21562;-68
2021/05/18 00:11:44;;;;;;;26.82;23.85;;;;;;;13.15;80.60;97222.30;1735028;82;21113;-70
2021/05/18 00:14:19;;;;;;;27.05;23.40;;;;;;;13.03;80.80;97214.98;1736229;82;21034;-70
2021/05/18 00:16:45;;;;;;;27.37;23.95;;;;;;;12.96;81.02;97222.06;1747791;81;21155;-69
2021/05/18 00:19:11;;;;;;;28.83;24.40;;;;;;;12.91;81.25;97220.70;1757348;80;21083;-69
2021/05/18 00:21:38;;;;;;;26.37;23.47;;;;;;;12.98;81.36;97227.83;1770226;80;21481;-70
2021/05/18 00:24:04;;;;;;;26.17;23.38;;;;;;;13.06;81.34;97238.00;1763659;80;21051;-70
2021/05/18 00:26:30;;;;;;;26.70;22.70;;;;;;;13.18;81.30;97251.98;1767505;80;21056;-69
2021/05/18 00:28:56;;;;;;;25.52;22.65;;;;;;;13.31;81.12;97259.45;1754866;81;21059;-70
2021/05/18 00:31:22;;;;;;;25.57;22.95;;;;;;;13.40;80.91;97258.13;1754481;81;21107;-70
2021/05/18 00:33:47;;;;;;;27.07;23.35;;;;;;;13.49;80.67;97257.39;1760899;80;21016;-70
2021/05/18 00:36:13;;;;;;;28.77;25.05;;;;;;;13.53;80.44;97249.81;1747397;81;21159;-69
2021/05/18 00:38:40;;;;;;;30.15;24.05;;;;;;;13.53;80.37;97249.23;1766596;80;21552;-70
2021/05/18 00:41:06;;;;;;;27.95;24.95;;;;;;;13.59;80.29;97246.66;1754470;81;21679;-70
2021/05/18 00:43:32;;;;;;;26.60;23.65;;;;;;;13.62;80.11;97245.00;1760926;80;21405;-69
2021/05/18 00:45:58;;;;;;;35.33;28.52;;;;;;;13.57;80.00;97242.26;1749417;80;21584;-69
2021/05/18 00:48:24;;;;;;;34.23;27.65;;;;;;;13.54;79.96;97249.37;1770549;80;21047;-70
2021/05/18 00:50:56;;;;;;;34.85;27.35;;;;;;;13.50;80.02;97241.95;1767115;80;21076;-67
2021/05/18 00:53:22;;;;;;;31.62;25.60;;;;;;;13.48;80.08;97248.45;1766168;80;21589;-68
2021/05/18 00:56:06;;;;;;;30.65;25.08;;;;;;;13.44;80.15;97232.83;1764793;80;21199;-68
2021/05/18 00:58:37;;;;;;;32.38;25.95;;;;;;;13.39;80.24;97241.61;1766094;80;21700;-69
2021/05/18 01:01:14;;;;;;;33.30;25.25;;;;;;;13.36;80.33;97247.20;1763545;80;21684;-69
2021/05/18 01:03:39;;;;;;;33.53;26.97;;;;;;;13.32;80.45;97244.02;1764312;80;21150;-69
2021/05/18 01:08:51;;;;;;;35.85;28.32;;;;;;;13.42;80.56;97263.13;1759349;80;21521;-69
2021/05/18 01:11:19;;;;;;;33.15;26.48;;;;;;;13.46;80.48;97261.02;1763605;80;21075;-69
2021/05/18 01:13:45;;;;;;;32.78;26.75;;;;;;;13.49;80.39;97254.66;1762871;80;21091;-69
2021/05/18 01:16:11;;;;;;;32.42;26.02;;;;;;;13.52;80.30;97257.23;1762702;80;21071;-69
2021/05/18 01:18:38;;;;;;;30.90;25.43;;;;;;;13.60;80.23;97254.23;1761789;80;20983;-69
2021/05/18 01:21:04;;;;;;;34.85;26.52;;;;;;;13.63;80.07;97260.89;1734142;82;21127;-68
2021/05/18 01:23:30;;;;;;;32.95;24.55;;;;;;;13.64;79.96;97261.65;1736287;82;21042;-69
2021/05/18 01:25:56;;;;;;;32.63;25.27;;;;;;;13.63;79.87;97258.17;1717690;82;21171;-69
2021/05/18 01:28:22;;;;;;;33.40;25.37;;;;;;;13.58;79.95;97257.41;1742586;82;21039;-69
2021/05/18 01:30:49;;;;;;;31.85;25.15;;;;;;;13.60;79.96;97250.89;1743760;82;21120;-69
2021/05/18 01:33:15;;;;;;;32.53;24.23;;;;;;;13.61;79.92;97253.02;1743297;82;21155;-69
2021/05/18 01:35:41;;;;;;;31.82;24.47;;;;;;;13.63;79.91;97256.80;1746957;82;21445;-69
2021/05/18 01:38:12;;;;;;;30.43;22.73;;;;;;;13.65;79.87;97263.19;1736180;82;21079;-69
2021/05/18 01:43:13;;;;;;;32.67;24.15;;;;;;;13.63;79.78;97269.08;1729741;82;21064;-70
2021/05/18 01:45:40;;;;;;;32.42;23.95;;;;;;;13.56;79.82;97273.48;1736533;82;21565;-69
2021/05/18 01:48:11;;;;;;;33.08;22.52;;;;;;;13.54;79.87;97266.34;1735561;82;21051;-69
2021/05/18 01:50:36;;;;;;;36.05;24.92;;;;;;;13.55;79.91;97273.30;1736522;82;21056;-69
2021/05/18 01:53:02;;;;;;;36.43;25.07;;;;;;;13.55;79.94;97276.79;1764195;79;21521;-69
2021/05/18 01:55:33;;;;;;;33.02;24.57;;;;;;;13.53;79.93;97272.41;1793078;79;21090;-69
2021/05/18 01:57:56;;;;;;;35.17;24.02;;;;;;;13.50;80.00;97270.59;1782857;79;21047;-68
2021/05/18 02:00:24;;;;;;;32.15;24.05;;;;;;;13.50;80.05;97276.05;1754946;81;21114;-69
2021/05/18 02:02:51;;;;;;;31.95;23.75;;;;;;;13.44;80.11;97277.83;1790546;79;21067;-69
2021/05/18 02:05:18;;;;;;;30.55;22.98;;;;;;;13.43;80.26;97271.48;1787296;79;21529;-69
2021/05/18 02:07:45;;;;;;;30.45;22.45;;;;;;;13.46;80.26;97271.32;1790821;79;21122;-69
2021/05/18 02:10:13;;;;;;;34.15;24.32;;;;;;;13.46;80.22;97270.56;1784210;79;21055;-69
2021/05/18 02:12:38;;;;;;;29.35;22.07;;;;;;;13.44;80.23;97272.37;1808105;79;21549;-69
2021/05/18 02:26:18;;;;;;;29.72;22.00;;;;;;;13.31;80.34;97282.63;1806163;79;22353;-69
2021/05/18 02:28:44;;;;;;;29.00;21.52;;;;;;;13.28;80.46;97282.92;1814041;79;21167;-69
2021/05/18 02:31:10;;;;;;;26.15;21.05;;;;;;;13.32;80.41;97281.44;1813279;79;21083;-69
2021/05/18 02:33:36;;;;;;;25.80;21.17;;;;;;;13.35;80.40;97283.88;1813458;79;21016;-69
2021/05/18 02:36:03;;;;;;;27.30;22.48;;;;;;;13.33;80.29;97283.70;1810250;79;21079;-68
2021/05/18 02:38:28;;;;;;;26.65;20.68;;;;;;;13.31;80.35;97286.72;1807422;79;21401;-69
2021/05/18 02:40:54;;;;;;;24.95;21.30;;;;;;;13.32;80.33;97286.28;1765290;80;21270;-68
2021/05/18 02:43:28;;;;;;;28.30;22.07;;;;;;;13.32;80.31;97297.80;1814115;79;21156;-69
2021/05/18 02:49:04;;;;;;;25.90;21.42;;;;;;;13.30;80.34;97295.51;1763775;80;21147;-69
2021/05/18 02:51:05;;;;;;;27.60;21.50;;;;;;;13.29;80.26;97281.73;1806155;79;21487;-69
2021/05/18 02:53:31;;;;;;;26.23;21.50;;;;;;;13.23;80.33;97284.09;1764181;80;21103;-69
2021/05/18 02:56:03;;;;;;;24.47;21.15;;;;;;;13.23;80.34;97288.17;1805602;79;21012;-69
2021/05/18 02:58:26;;;;;;;24.45;20.88;;;;;;;13.23;80.39;97289.54;1761526;80;21080;-69
2021/05/18 03:00:52;;;;;;;26.77;21.37;;;;;;;13.24;80.39;97295.92;1807701;79;21039;-69
2021/05/18 03:03:18;;;;;;;25.52;22.10;;;;;;;13.27;80.33;97295.66;1805825;79;21342;-69
2021/05/18 03:05:44;;;;;;;25.15;21.82;;;;;;;13.27;80.29;97299.75;1811092;79;20999;-69
2021/05/18 03:08:10;;;;;;;24.55;21.23;;;;;;;13.30;80.23;97302.32;1763781;80;21068;-70
2021/05/18 03:10:36;;;;;;;23.22;20.60;;;;;;;13.27;80.17;97303.22;1809345;79;21070;-69
2021/05/18 03:13:03;;;;;;;24.90;21.00;;;;;;;13.28;80.21;97299.28;1764356;80;21111;-69
2021/05/18 03:15:29;;;;;;;23.85;21.17;;;;;;;13.27;80.13;97300.50;1807006;79;21146;-68
2021/05/18 03:17:56;;;;;;;22.87;20.50;;;;;;;13.28;80.08;97303.37;1810688;79;21094;-69
2021/05/18 03:20:22;;;;;;;24.57;21.40;;;;;;;13.27;80.03;97308.67;1808667;79;21064;-69
2021/05/18 03:22:47;;;;;;;22.22;19.80;;;;;;;13.29;79.99;97303.55;1810043;79;21083;-70
2021/05/18 03:25:14;;;;;;;23.25;20.62;;;;;;;13.30;79.92;97309.14;1762702;80;21029;-68
2021/05/18 03:27:41;;;;;;;23.00;20.70;;;;;;;13.32;79.91;97312.80;1805241;79;21115;-69
2021/05/18 03:30:46;;;;;;;23.85;20.95;;;;;;;13.35;79.78;97316.59;1802987;79;22400;-69
2021/05/18 03:35:38;;;;;;;23.07;20.70;;;;;;;13.39;79.63;97328.86;1764213;80;21036;-68
2021/05/18 03:38:30;;;;;;;22.13;19.00;;;;;;;13.38;79.53;97325.23;1808305;79;21096;-69
2021/05/18 03:40:33;;;;;;;24.47;20.57;;;;;;;13.39;79.46;97332.19;1805127;79;21118;-69
2021/05/18 03:45:32;;;;;;;23.25;20.17;;;;;;;13.43;79.36;97336.92;1807004;79;21076;-69
2021/05/18 03:58:59;;;;;;;23.32;20.82;;;;;;;13.36;79.40;97321.58;1762934;80;21068;-69
2021/05/18 04:04:20;;;;;;;24.27;20.90;;;;;;;13.32;79.30;97335.36;1809978;79;21714;-69
2021/05/18 04:12:29;;;;;;;24.05;20.90;;;;;;;13.31;79.35;97335.21;1761852;80;21130;-69
2021/05/18 04:17:28;;;;;;;23.22;20.72;;;;;;;13.37;79.29;97343.56;1797435;79;21067;-69
2021/05/18 04:38:58;;;;;;;28.65;21.35;;;;;;;13.35;79.32;97349.30;1611983;88;21750;-67
2021/05/18 04:52:05;;;;;;;23.75;18.67;;;;;;;13.25;79.48;97343.02;1629299;88;21124;-69
2021/05/18 04:59:54;;;;;;;18.05;15.88;;;;;;;13.19;79.52;97346.17;1613884;88;21077;-69
2021/05/18 05:02:47;;;;;;;16.77;14.55;;;;;;;13.14;79.71;97355.68;1613941;88;21197;-69
2021/05/18 05:07:44;;;;;;;15.38;13.18;;;;;;;13.14;79.71;97359.77;1613616;88;21139;-69
2021/05/18 05:10:01;;;;;;;14.87;11.68;;;;;;;13.08;79.80;97367.77;1613680;88;22564;-69
2021/05/18 05:14:54;;;;;;;13.78;10.75;;;;;;;13.04;79.69;97369.09;1609561;88;21190;-69
2021/05/18 05:17:20;;;;;;;14.75;11.48;;;;;;;12.98;79.79;97364.83;1596452;89;21115;-69
2021/05/18 05:19:46;;;;;;;14.30;10.55;;;;;;;12.91;79.87;97373.89;1615324;89;21293;-69
2021/05/18 05:22:13;;;;;;;14.47;10.93;;;;;;;12.86;79.99;97372.48;1615343;89;21632;-69
2021/05/18 05:24:39;;;;;;;;;;;;;;;12.85;80.09;97378.54;1617459;87;21124;-69
2021/05/18 05:27:05;;;;;;;11.57;8.93;;;;;;;12.88;80.07;97380.98;1601125;88;20196;-69
2021/05/18 05:29:31;;;;;;;12.23;9.13;;;;;;;12.86;79.82;97381.41;1602581;89;21191;-69
2021/05/18 05:31:56;;;;;;;10.55;8.75;;;;;;;12.83;79.98;97378.83;1607164;89;21187;-69
2021/05/18 05:34:22;;;;;;;9.88;8.15;;;;;;;12.87;79.99;97378.08;1613145;89;21104;-69
2021/05/18 05:36:48;;;;;;;9.88;8.15;;;;;;;12.91;79.88;97371.91;1610245;89;21647;-69
2021/05/18 05:39:23;;;;;;;8.95;7.62;;;;;;;12.98;79.82;97381.17;1603383;89;21526;-69
2021/05/18 05:41:51;;;;;;;8.25;7.35;;;;;;;13.03;79.68;97376.52;1603125;89;21111;-69
2021/05/18 05:44:17;;;;;;;9.33;7.92;;;;;;;13.11;79.51;97378.38;1602122;89;21621;-69
2021/05/18 05:46:43;;;;;;;9.63;7.42;;;;;;;13.08;79.44;97386.84;1601896;89;21139;-69
2021/05/18 05:49:08;;;;;;;8.65;7.75;;;;;;;13.10;79.30;97380.96;1603261;88;21557;-69
2021/05/18 05:51:34;;;;;;;8.35;7.55;;;;;;;13.06;79.24;97385.16;1576805;91;21680;-69
2021/05/18 05:54:00;;;;;;;8.50;7.22;;;;;;;13.05;79.24;97386.98;1603508;88;21055;-69
2021/05/18 05:56:27;;;;;;;8.93;7.50;;;;;;;13.00;79.22;97396.48;1603250;89;21209;-68
2021/05/18 05:58:52;;;;;;;9.23;8.20;;;;;;;12.95;79.35;97391.61;1600336;89;21068;-69
2021/05/18 06:01:19;;;;;;;8.30;7.30;;;;;;;12.89;79.43;97387.94;1607903;88;21712;-69
2021/05/18 06:03:44;;;;;;;8.50;6.90;;;;;;;12.87;79.54;97388.98;1606385;88;21580;-69
2021/05/18 06:06:10;;;;;;;8.63;7.28;;;;;;;12.88;79.60;97391.88;1605796;89;21663;-69
2021/05/18 06:08:38;;;;;;;7.62;6.58;;;;;;;12.84;79.56;97395.32;1618084;88;21137;-69
2021/05/18 06:11:11;;;;;;;7.75;6.30;;;;;;;12.83;79.56;97400.02;1614371;88;21648;-69
2021/05/18 06:37:50;;;;;;;6.58;5.22;;;;;;;12.74;79.44;97440.81;1588744;90;21150;-68
2021/05/18 06:43:07;;;;;;;5.20;4.45;;;;;;;12.76;79.43;97444.45;1589371;90;21140;-69
2021/05/18 06:46:00;;;;;;;4.60;4.20;;;;;;;12.76;79.44;97449.89;1588560;90;21054;-68
2021/05/18 06:48:14;;;;;;;5.33;4.75;;;;;;;12.70;79.58;97450.30;1582848;90;21103;-69
2021/05/18 06:50:40;;;;;;;5.20;4.50;;;;;;;12.61;79.77;97459.16;1589244;90;21077;-69
2021/05/18 06:53:05;;;;;;;4.80;4.40;;;;;;;12.58;79.92;97463.52;1588681;90;21184;-68
2021/05/18 06:55:33;;;;;;;5.80;5.05;;;;;;;12.56;80.12;97461.83;1589330;90;21109;-68
2021/05/18 06:58:08;;;;;;;5.30;4.80;;;;;;;12.57;80.30;97466.67;1588967;90;21154;-68
2021/05/18 07:00:30;;;;;;;5.15;4.65;;;;;;;12.61;80.45;97470.81;1585536;90;21607;-69
2021/05/18 07:02:58;;;;;;;5.08;4.58;;;;;;;12.62;80.37;97477.77;1588857;90;21133;-68
2021/05/18 07:05:42;;;;;;;5.20;4.33;;;;;;;12.58;80.28;97481.23;1588366;90;21055;-69
2021/05/18 07:10:45;;;;;;;4.10;3.75;;;;;;;12.54;80.45;97488.73;1588678;90;21079;-69
2021/05/18 07:13:11;;;;;;;3.70;3.33;;;;;;;12.53;80.49;97485.11;1586509;90;21506;-68
2021/05/18 07:15:42;;;;;;;4.22;3.83;;;;;;;12.50;80.45;97471.77;1589071;89;21674;-69
2021/05/18 07:18:06;;;;;;;4.67;3.87;;;;;;;12.54;80.66;97494.19;1587300;90;21217;-69
2021/05/18 07:20:32;;;;;;;4.22;3.83;;;;;;;12.58;80.43;97490.75;1589596;90;21122;-68
2021/05/18 07:23:02;;;;;;;4.10;3.70;;;;;;;12.61;80.46;97493.95;1588907;90;21095;-69
2021/05/18 07:25:26;;;;;;;4.92;3.55;;;;;;;12.65;80.40;97491.86;1588552;89;21090;-69
2021/05/18 07:27:52;;;;;;;4.35;3.60;;;;;;;12.68;80.33;97501.12;1593015;89;21167;-68
2021/05/18 07:30:19;;;;;;;3.62;3.20;;;;;;;12.76;80.25;97503.01;1595123;89;21203;-68
2021/05/18 07:32:44;;;;;;;3.23;2.90;;;;;;;12.79;80.03;97499.40;1595341;89;21575;-68
2021/05/18 07:35:11;;;;;;;3.45;3.05;;;;;;;12.73;79.93;97513.42;1595497;90;21072;-69
2021/05/18 07:37:37;;;;;;;3.98;3.58;;;;;;;12.71;80.13;97509.02;1595089;90;21128;-68
2021/05/18 07:40:05;;;;;;;3.72;2.90;;;;;;;12.73;80.03;97519.62;1595737;90;21080;-69
2021/05/18 07:42:30;;;;;;;4.30;2.90;;;;;;;12.75;79.95;97520.56;1595888;90;21120;-68
2021/05/18 07:44:56;;;;;;;3.95;2.58;;;;;;;12.74;79.94;97529.34;1595358;90;21088;-68
2021/05/18 07:47:26;;;;;;;2.80;2.50;;;;;;;12.80;79.95;97533.02;1594882;89;21207;-69
2021/05/18 07:49:51;;;;;;;3.47;2.87;;;;;;;12.87;79.64;97535.50;1594516;89;21159;-69
2021/05/18 08:05:50;;;;;;;5.05;3.60;;;;;;;13.12;79.00;97558.41;1592550;90;21125;-68
2021/05/18 08:08:17;;;;;;;;;;;;;;;13.15;78.99;97553.47;1597868;90;21148;-68
2021/05/18 08:10:48;;;;;;;4.72;3.33;;;;;;;13.22;78.88;97549.72;1595675;90;20599;-68
2021/05/18 08:13:14;;;;;;;4.03;3.20;;;;;;;13.27;78.53;97554.03;1595107;89;21184;-68
2021/05/18 08:58:15;;;;;;;2.75;2.50;;;;;;;12.84;79.23;97591.47;1595866;90;21544;-69
2021/05/18 10:23:59;;;;;;;6.45;5.85;;;;;;;11.96;82.41;97644.86;1687275;85;21632;-67
2021/05/18 10:26:18;;;;;;;5.45;5.00;;;;;;;11.97;82.54;97638.22;1689703;84;21151;-68
2021/05/18 10:36:03;;;;;;;5.50;5.00;;;;;;;12.10;82.69;97642.33;1686403;85;21074;-68
2021/05/18 10:38:18;;;;;;;7.00;6.00;;;;;;;12.16;82.52;97636.52;1678539;85;21095;-68
2021/05/18 10:40:44;;;;;;;6.85;6.03;;;;;;;12.20;82.59;97639.16;1682910;85;21121;-68
2021/05/18 10:43:27;;;;;;;5.90;5.30;;;;;;;12.24;82.62;97632.99;1690030;85;21078;-68
2021/05/18 10:45:59;;;;;;;6.30;5.70;;;;;;;12.32;82.83;97639.00;1692703;84;21094;-69
2021/05/18 10:48:37;;;;;;;6.33;5.60;;;;;;;12.35;82.73;97643.56;1699136;84;21022;-68
2021/05/18 10:51:25;;;;;;;5.83;5.33;;;;;;;12.35;82.70;97638.87;1699055;84;21167;-69
2021/05/18 10:54:24;;;;;;;5.33;4.83;;;;;;;12.35;82.64;97644.33;1694268;84;21075;-68
2021/05/18 10:57:01;;;;;;;6.47;5.65;;;;;;;12.36;82.46;97631.50;1644338;87;21579;-68
2021/05/18 10:59:28;;;;;;;7.20;6.50;;;;;;;12.34;82.51;97631.92;1647790;86;21118;-68
2021/05/18 11:02:09;;;;;;;6.83;6.12;;;;;;;12.40;82.64;97633.50;1649650;87;21106;-68
2021/05/18 11:04:38;;;;;;;6.83;6.17;;;;;;;12.45;82.39;97634.32;1646801;87;21094;-67
2021/05/18 11:07:05;;;;;;;8.05;7.25;;;;;;;12.48;82.43;97645.70;1641967;87;21063;-67
2021/05/18 11:09:31;;;;;;;8.13;7.33;;;;;;;12.55;82.43;97641.41;1650121;87;21120;-69
2021/05/18 11:12:11;;;;;;;7.92;7.12;;;;;;;12.59;82.35;97654.31;1639267;86;21106;-69
2021/05/18 11:14:43;;;;;;;7.25;6.50;;;;;;;12.68;82.42;97655.61;1690419;84;21130;-68
2021/05/18 11:17:22;;;;;;;7.15;6.47;;;;;;;12.77;82.21;97644.84;1638245;87;22191;-69
2021/05/18 11:20:04;;;;;;;7.03;6.33;;;;;;;12.60;81.91;97634.06;1641477;87;21167;-69
2021/05/18 11:25:44;;;;;;;7.30;6.60;;;;;;;12.76;81.69;97659.03;1639514;87;21175;-69
2021/05/18 11:28:19;;;;;;;6.15;5.65;;;;;;;12.78;81.85;97666.78;1647282;87;21368;-69
2021/05/18 11:30:50;;;;;;;5.78;5.17;;;;;;;12.82;81.67;97661.98;1646460;87;21114;-69
2021/05/18 11:33:16;;;;;;;6.10;5.45;;;;;;;12.83;81.51;97667.60;1649215;87;21344;-68
2021/05/18 11:35:42;;;;;;;5.85;5.35;;;;;;;12.92;81.32;97665.58;1649375;87;21118;-69
2021/05/18 11:38:11;;;;;;;7.53;5.55;;;;;;;12.94;81.05;97666.66;1648492;86;21067;-69
2021/05/18 11:40:40;;;;;;;6.70;6.10;;;;;;;12.97;80.90;97667.15;1649714;87;21648;-69
2021/05/18 11:43:13;;;;;;;6.15;5.65;;;;;;;13.02;80.89;97673.41;1646153;86;21080;-69
2021/05/18 11:45:39;;;;;;;6.17;5.67;;;;;;;13.10;80.57;97677.44;1654253;85;21124;-69
2021/05/18 11:48:14;;;;;;;6.62;6.03;;;;;;;13.11;80.42;97685.01;1656823;86;21065;-69
2021/05/18 11:50:39;;;;;;;6.40;5.80;;;;;;;13.09;80.24;97672.41;1663423;85;21785;-69
2021/05/18 11:53:05;;;;;;;6.25;5.65;;;;;;;13.07;80.25;97668.78;1678913;84;21175;-69
2021/05/18 11:55:32;;;;;;;6.22;5.60;;;;;;;13.14;80.19;97677.92;1651468;86;21108;-69
2021/05/18 11:57:59;;;;;;;6.10;5.50;;;;;;;13.17;79.93;97678.40;1679821;85;21152;-69
2021/05/18 12:00:30;;;;;;;6.72;4.85;;;;;;;13.20;79.74;97677.52;1668241;85;21652;-68
2021/05/18 12:03:00;;;;;;;6.03;5.35;;;;;;;13.20;79.50;97682.36;1653399;85;21049;-68
2021/05/18 12:05:26;;;;;;;5.78;4.83;;;;;;;13.19;79.52;97676.00;1603754;88;21125;-69
2021/05/18 12:07:52;;;;;;;4.72;4.33;;;;;;;13.18;79.31;97680.70;1651530;85;21027;-68
2021/05/18 12:10:33;;;;;;;5.40;4.90;;;;;;;13.22;79.36;97688.75;1645050;85;21072;-69
2021/05/18 12:12:59;;;;;;;5.22;4.72;;;;;;;13.24;79.30;97691.81;1645788;87;21068;-69
2021/05/18 12:15:25;;;;;;;5.72;5.12;;;;;;;13.18;79.22;97701.14;1647671;85;21164;-69
2021/05/18 12:17:55;;;;;;;5.33;4.83;;;;;;;13.14;79.35;97701.09;1648569;86;21099;-69
2021/05/18 12:20:21;;;;;;;5.42;4.92;;;;;;;13.19;79.21;97706.75;1645787;85;21112;-68
2021/05/18 12:22:47;;;;;;;5.65;5.15;;;;;;;13.20;79.07;97711.59;1644645;87;21159;-69
2021/05/18 12:25:32;;;;;;;5.67;5.17;;;;;;;13.15;79.00;97706.11;1645862;85;21123;-68
2021/05/18 12:28:06;;;;;;;5.80;5.30;;;;;;;13.14;79.05;97714.72;1645811;86;21343;-69
2021/05/18 12:30:36;;;;;;;5.62;5.12;;;;;;;13.13;79.11;97705.78;1642696;86;21286;-69
2021/05/18 12:33:02;;;;;;;6.05;5.40;;;;;;;13.15;79.05;97702.60;1642916;87;21518;-69
2021/05/18 12:35:28;;;;;;;5.25;4.75;;;;;;;13.17;79.10;97713.23;1642826;87;21116;-69
2021/05/18 12:37:55;;;;;;;5.33;4.83;;;;;;;13.26;78.90;97716.70;1646930;85;21351;-69
2021/05/18 12:40:33;;;;;;;5.75;5.25;;;;;;;13.29;78.59;97717.95;1632129;87;21447;-69
2021/05/18 12:43:10;;;;;;;5.78;5.00;;;;;;;13.29;78.60;97713.86;1663501;86;21059;-68
2021/05/18 12:45:36;;;;;;;5.35;4.85;;;;;;;13.34;78.48;97715.28;1653672;86;21088;-69
2021/05/18 12:48:03;;;;;;;5.43;4.80;;;;;;;13.40;78.30;97716.84;1643844;85;21625;-69
2021/05/18 12:50:38;;;;;;;5.55;5.05;;;;;;;13.46;78.10;97720.53;1611365;86;21144;-69
2021/05/18 12:53:04;;;;;;;5.05;4.53;;;;;;;13.53;78.05;97711.52;1611785;89;21117;-69
2021/05/18 12:55:30;;;;;;;6.22;4.95;;;;;;;13.68;77.71;97719.22;1630765;86;21144;-69
2021/05/18 12:58:02;;;;;;;5.17;4.78;;;;;;;13.70;77.58;97723.64;1671673;86;21077;-69
2021/05/18 13:00:36;;;;;;;5.10;4.70;;;;;;;13.75;77.37;97729.30;1671500;85;21164;-69
2021/05/18 13:03:19;;;;;;;5.10;4.55;;;;;;;13.80;77.18;97725.22;1671591;85;21392;-69
2021/05/18 13:05:48;;;;;;;5.37;4.78;;;;;;;13.82;77.06;97726.16;1617238;86;21129;-69
2021/05/18 13:08:21;;;;;;;5.08;4.67;;;;;;;13.83;77.00;97738.00;1680591;85;21104;-69
2021/05/18 13:13:40;;;;;;;5.12;4.62;;;;;;;13.71;77.13;97735.45;1635902;87;21108;-69
2021/05/18 13:16:19;;;;;;;5.92;5.33;;;;;;;13.77;76.95;97738.39;1679824;85;21668;-69
2021/05/18 13:19:02;;;;;;;5.30;4.80;;;;;;;13.81;76.82;97739.04;1666062;85;21067;-69
2021/05/18 13:21:39;;;;;;;5.83;5.33;;;;;;;13.74;76.61;97740.64;1634210;88;21143;-69
2021/05/18 13:26:35;;;;;;;7.78;5.60;;;;;;;13.83;76.47;97738.59;1671683;85;21145;-70
2021/05/18 13:29:07;;;;;;;6.30;5.70;;;;;;;13.92;76.38;97741.41;1669746;85;21556;-69
2021/05/18 13:31:34;;;;;;;6.78;6.17;;;;;;;13.93;76.16;97746.41;1636103;87;21612;-69
2021/05/18 13:34:00;;;;;;;6.10;5.50;;;;;;;13.92;76.20;97748.23;1678260;85;21074;-69
2021/05/18 13:36:32;;;;;;;6.45;5.85;;;;;;;13.86;76.14;97743.94;1662779;85;21651;-69
2021/05/18 13:39:01;;;;;;;6.45;5.85;;;;;;;13.86;76.14;97743.94;1666806;85;21473;-69
2021/05/18 13:41:27;;;;;;;6.60;6.00;;;;;;;13.94;76.20;97759.45;1673103;85;21119;-69
2021/05/18 13:43:53;;;;;;;7.00;6.40;;;;;;;14.00;75.98;97767.25;1665689;85;21103;-69
2021/05/18 13:46:20;;;;;;;6.90;6.40;;;;;;;13.94;75.92;97769.00;1663978;85;21162;-69
2021/05/18 13:48:45;;;;;;;7.40;6.67;;;;;;;13.91;75.95;97767.94;1681618;85;21072;-68
2021/05/18 13:51:14;;;;;;;7.72;7.08;;;;;;;13.88;75.87;97773.50;1674228;85;21318;-69
2021/05/18 13:53:39;;;;;;;8.30;7.50;;;;;;;13.76;75.90;97764.91;1685179;85;21119;-69
2021/05/18 13:56:05;;;;;;;8.03;7.33;;;;;;;13.67;76.13;97765.45;1612820;89;21131;-69
2021/05/18 13:58:30;;;;;;;8.58;7.67;;;;;;;13.61;76.31;97773.40;1614388;86;21123;-69
2021/05/18 14:00:56;;;;;;;8.25;7.53;;;;;;;13.58;76.57;97759.28;1633348;87;21133;-69
2021/05/18 14:03:22;;;;;;;8.65;7.28;;;;;;;13.66;76.54;97776.18;1637000;86;21061;-69
2021/05/18 14:05:49;;;;;;;8.08;7.28;;;;;;;13.71;76.47;97765.47;1625028;86;21140;-69
2021/05/18 14:11:06;;;;;;;8.23;7.42;;;;;;;13.58;76.34;97759.88;1660407;86;21997;-69
2021/05/18 14:13:33;;;;;;;8.80;7.90;;;;;;;13.50;76.46;97758.77;1659658;85;21079;-69
2021/05/18 14:16:03;;;;;;;8.95;8.13;;;;;;;13.46;76.65;97764.92;1656683;86;21127;-69
2021/05/18 14:18:29;;;;;;;8.73;7.92;;;;;;;13.45;76.85;97753.86;1659360;85;21080;-72
2021/05/18 14:20:54;;;;;;;9.18;8.28;;;;;;;13.48;76.92;97769.95;1649558;86;21097;-69
2021/05/18 14:23:22;;;;;;;8.28;7.47;;;;;;;13.49;76.97;97774.95;1655560;86;21037;-69
2021/05/18 14:25:48;;;;;;;8.95;8.05;;;;;;;13.49;77.05;97777.69;1640159;87;21680;-69
2021/05/18 14:28:14;;;;;;;8.98;8.08;;;;;;;13.52;77.09;97789.08;1640327;87;21041;-70
2021/05/18 14:30:39;;;;;;;8.85;7.95;;;;;;;13.60;77.11;97782.03;1635866;87;21656;-69
2021/05/18 14:33:05;;;;;;;8.55;7.75;;;;;;;13.58;76.94;97783.07;1640309;87;21403;-70
2021/05/18 14:35:31;;;;;;;9.58;8.68;;;;;;;13.52;77.06;97786.95;1636617;87;21085;-69
2021/05/18 14:38:03;;;;;;;9.50;8.60;;;;;;;13.47;77.28;97790.98;1622039;87;21038;-69
2021/05/18 14:40:44;;;;;;;8.80;8.00;;;;;;;13.45;77.57;97787.95;1634516;86;22134;-69
2021/05/18 14:43:11;;;;;;;9.45;8.55;;;;;;;13.53;77.47;97782.44;1656542;86;21098;-69
2021/05/18 14:45:31;;;;;;;8.80;8.00;;;;;;;13.57;77.40;97795.95;1659443;84;21095;-69
2021/05/18 14:53:41;;;;;;;8.90;8.13;;;;;;;13.62;77.34;97788.58;1677973;85;21022;-69
2021/05/18 14:55:47;;;;;;;8.93;8.13;;;;;;;13.77;76.96;97788.86;1595081;88;21092;-69
2021/05/18 14:58:17;;;;;;;8.55;7.83;;;;;;;13.77;76.79;97792.95;1636821;87;21396;-69
2021/05/18 15:00:40;;;;;;;8.98;8.18;;;;;;;13.77;76.79;97792.95;1653125;86;21095;-69
2021/05/18 15:03:06;;;;;;;9.10;8.30;;;;;;;13.74;76.78;97789.14;1680087;85;20996;-69
2021/05/18 15:05:32;;;;;;;9.35;8.45;;;;;;;13.71;76.94;97791.39;1673817;85;21059;-69
2021/05/18 15:07:57;;;;;;;9.23;8.20;;;;;;;13.69;76.95;97795.76;1676486;85;21039;-69
2021/05/18 15:10:23;;;;;;;8.18;7.47;;;;;;;13.76;76.88;97796.90;1630876;85;21079;-69
2021/05/18 15:12:49;;;;;;;8.60;7.62;;;;;;;13.79;76.67;97794.66;1681880;85;21514;-69
2021/05/18 15:15:15;;;;;;;8.38;7.58;;;;;;;13.83;76.66;97790.43;1670025;85;21449;-69
2021/05/18 15:17:41;;;;;;;8.25;7.45;;;;;;;13.88;76.43;97789.88;1667567;85;21036;-69
2021/05/18 15:20:09;;;;;;;8.30;7.50;;;;;;;13.92;76.40;97793.27;1674719;85;20995;-69
2021/05/18 15:22:35;;;;;;;7.90;7.20;;;;;;;13.92;76.18;97798.11;1675647;85;21029;-71
2021/05/18 15:25:01;;;;;;;8.08;7.37;;;;;;;13.97;76.11;97792.09;1662780;85;21001;-69
2021/05/18 15:27:27;;;;;;;8.05;7.28;;;;;;;13.96;75.89;97797.38;1677533;85;21095;-69
2021/05/18 15:29:53;;;;;;;7.75;7.05;;;;;;;13.93;75.92;97797.51;1665343;85;20976;-68
2021/05/18 15:32:19;;;;;;;7.73;6.83;;;;;;;13.94;75.81;97800.39;1651695;86;21142;-69
2021/05/18 15:34:45;;;;;;;7.75;7.05;;;;;;;13.90;75.73;97803.84;1650363;85;21004;-69
2021/05/18 15:37:10;;;;;;;7.78;6.92;;;;;;;13.82;75.90;97797.86;1650356;85;21091;-69
2021/05/18 15:39:36;;;;;;;7.20;6.60;;;;;;;13.84;75.95;97796.83;1635120;86;21004;-70
2021/05/18 15:42:03;;;;;;;7.85;7.15;;;;;;;13.87;75.93;97800.03;1672343;85;21068;-69
2021/05/18 15:44:29;;;;;;;8.43;7.63;;;;;;;13.85;75.96;97792.88;1663547;85;21029;-69
2021/05/18 15:46:54;;;;;;;8.30;7.60;;;;;;;13.87;75.96;97808.22;1669379;85;21136;-69
2021/05/18 15:49:20;;;;;;;8.45;7.37;;;;;;;13.87;75.97;97801.40;1667339;85;21056;-69
2021/05/18 15:51:46;;;;;;;9.10;8.30;;;;;;;13.90;75.96;97802.48;1651615;87;21080;-69
2021/05/18 15:54:12;;;;;;;8.70;7.80;;;;;;;13.90;75.72;97792.94;1650706;85;21008;-69
2021/05/18 15:56:37;;;;;;;8.38;7.67;;;;;;;14.00;75.88;97802.73;1668455;85;22124;-69
2021/05/18 15:59:03;;;;;;;9.80;8.28;;;;;;;13.99;75.84;97794.37;1649041;85;21687;-69
2021/05/18 16:01:29;;;;;;;8.38;7.58;;;;;;;14.02;75.87;97796.21;1652904;87;21671;-69
2021/05/18 16:03:55;;;;;;;8.50;7.70;;;;;;;14.07;75.76;97797.02;1649996;87;21097;-69
2021/05/18 16:06:22;;;;;;;9.20;8.35;;;;;;;14.05;75.71;97799.45;1676755;85;21647;-69
2021/05/18 16:11:16;;;;;;;9.35;8.45;;;;;;;13.94;75.83;97805.84;1659177;85;21083;-69
2021/05/18 16:13:42;;;;;;;8.90;8.10;;;;;;;13.92;75.83;97804.94;1663935;85;21060;-69
2021/05/18 16:16:09;;;;;;;8.65;7.95;;;;;;;13.92;75.88;97806.91;1644796;87;21120;-69
2021/05/18 16:18:37;;;;;;;8.08;7.37;;;;;;;13.90;75.87;97802.48;1644936;85;21037;-69